createdAt,value
2022-09-28T00:05:35.100Z,12.53
2022-09-28T00:15:36.530Z,12.71
2022-09-28T00:25:37.961Z,12.87
2022-09-28T00:35:39.486Z,12.96
2022-09-28T00:45:41.006Z,12.91
2022-09-28T00:55:48.509Z,13.08
2022-09-28T01:05:52.467Z,13.18
2022-09-28T01:16:15.438Z,13.30
2022-09-28T01:26:36.179Z,13.42
2022-09-28T01:36:48.613Z,13.46
2022-09-28T01:46:53.456Z,13.49
2022-09-28T01:57:02.364Z,13.59
2022-09-28T02:07:04.039Z,13.42
2022-09-28T02:17:06.327Z,13.30
2022-09-28T02:27:21.177Z,13.46
2022-09-28T02:37:22.881Z,13.40
2022-09-28T02:47:39.663Z,13.53
2022-09-28T02:58:07.185Z,13.61
2022-09-28T03:08:24.345Z,13.63
2022-09-28T03:18:25.827Z,13.37
2022-09-28T03:28:28.169Z,13.06
2022-09-28T03:38:30.091Z,13.06
2022-09-28T03:48:34.158Z,12.88
2022-09-28T03:58:35.673Z,12.82
2022-09-28T04:08:38.361Z,12.68
2022-09-28T04:18:40.024Z,12.62
2022-09-28T04:29:13.795Z,12.73
2022-09-28T04:39:19.106Z,12.55
2022-09-28T04:49:24.676Z,12.35
2022-09-28T04:59:37.575Z,12.54
2022-09-28T05:09:39.620Z,12.76
2022-09-28T05:19:41.113Z,13.04
2022-09-28T05:29:43.331Z,13.44
2022-09-28T05:40:05.920Z,13.68
2022-09-28T05:50:09.708Z,13.88
2022-09-28T06:00:11.869Z,14.08
2022-09-28T06:10:22.319Z,14.11
2022-09-28T06:20:25.833Z,14.22
2022-09-28T06:30:33.935Z,14.47
2022-09-28T06:40:36.426Z,14.62
2022-09-28T06:50:41.100Z,14.68
2022-09-28T07:01:01.652Z,15.03
2022-09-28T07:11:09.036Z,15.02
2022-09-28T07:21:29.277Z,14.46
2022-09-28T07:31:33.708Z,14.53
2022-09-28T07:41:56.710Z,14.51
2022-09-28T07:52:01.563Z,14.40
2022-09-28T08:02:03.043Z,14.79
2022-09-28T08:12:05.207Z,15.32
2022-09-28T08:22:20.229Z,15.34
2022-09-28T08:32:24.693Z,15.55
2022-09-28T08:43:01.019Z,15.93
2022-09-28T08:53:35.107Z,16.01
2022-09-28T09:03:47.049Z,16.72
2022-09-28T09:14:21.748Z,17.78
2022-09-28T09:24:30.447Z,18.61
2022-09-28T09:35:12.388Z,19.21
2022-09-28T09:46:11.619Z,19.81
2022-09-28T09:56:48.825Z,21.22
2022-09-28T10:07:24.304Z,23.07
2022-09-28T10:17:27.585Z,20.86
2022-09-28T10:27:49.581Z,20.17
2022-09-28T10:38:06.488Z,20.36
2022-09-28T10:48:47.064Z,19.19
2022-09-28T10:58:48.837Z,19.27
2022-09-28T11:09:33.241Z,19.04
2022-09-28T11:19:40.880Z,19.88
2022-09-28T11:29:46.033Z,20.60
2022-09-28T11:40:29.423Z,21.22
2022-09-28T11:50:50.851Z,21.06
2022-09-28T12:01:03.707Z,21.55
2022-09-28T12:11:35.868Z,21.13
2022-09-28T12:21:59.543Z,21.33
2022-09-28T12:32:12.918Z,21.15
2022-09-28T12:42:27.581Z,20.54
2022-09-28T12:52:50.038Z,20.26
2022-09-28T13:03:19.617Z,21.16
2022-09-28T13:13:47.417Z,21.11
2022-09-28T13:23:51.954Z,20.38
2022-09-28T13:33:53.826Z,20.71
2022-09-28T13:44:13.550Z,20.84
2022-09-28T13:54:41.917Z,20.97
2022-09-28T14:04:54.171Z,21.00
2022-09-28T14:14:56.712Z,20.28
2022-09-28T14:25:24.492Z,20.49
2022-09-28T14:35:39.178Z,19.72
2022-09-28T14:45:42.333Z,19.29
2022-09-28T14:55:55.438Z,18.99
2022-09-28T15:05:56.976Z,18.64
2022-09-28T15:16:11.371Z,18.33
2022-09-28T15:26:47.950Z,17.84
2022-09-28T15:36:49.916Z,17.50
2022-09-28T15:47:05.133Z,17.23
2022-09-28T15:57:06.803Z,16.91
2022-09-28T16:07:33.549Z,16.67
2022-09-28T16:17:35.339Z,16.25
2022-09-28T16:27:41.860Z,15.91
2022-09-28T16:37:43.307Z,15.62
2022-09-28T16:47:45.063Z,15.35
2022-09-28T16:57:50.185Z,14.89
2022-09-28T17:08:03.936Z,14.89
2022-09-28T17:18:06.040Z,14.85
2022-09-28T17:28:27.274Z,14.75
2022-09-28T17:38:28.741Z,14.50
2022-09-28T17:48:30.869Z,14.31
2022-09-28T17:58:32.278Z,14.11
2022-09-28T18:08:34.378Z,13.88
2022-09-28T18:18:39.797Z,13.82
2022-09-28T18:28:41.566Z,13.71
2022-09-28T18:38:43.045Z,13.63
2022-09-28T18:48:44.663Z,13.63
2022-09-28T18:58:47.645Z,13.54
2022-09-28T19:08:53.752Z,13.54
2022-09-28T19:18:58.857Z,13.66
2022-09-28T19:29:00.723Z,13.48
2022-09-28T19:39:03.278Z,13.33
2022-09-28T19:49:19.307Z,13.22
2022-09-28T19:59:21.791Z,13.28
2022-09-28T20:09:23.253Z,13.22
2022-09-28T20:19:24.697Z,13.08
2022-09-28T20:29:26.666Z,13.02
2022-09-28T20:39:28.150Z,12.96
2022-09-28T20:49:29.635Z,12.99
2022-09-28T20:59:31.159Z,13.03
2022-09-28T21:09:32.955Z,12.96
2022-09-28T21:19:34.508Z,12.84
2022-09-28T21:29:35.962Z,12.71
2022-09-28T21:39:37.571Z,12.55
2022-09-28T21:49:39.038Z,12.48
2022-09-28T21:59:40.942Z,12.38
2022-09-28T22:09:42.430Z,12.35
2022-09-28T22:19:43.889Z,12.28
2022-09-28T22:29:46.121Z,12.03
2022-09-28T22:39:47.882Z,11.90
2022-09-28T22:49:49.369Z,11.78
2022-09-28T22:59:50.920Z,11.70
2022-09-28T23:09:52.363Z,11.72
2022-09-28T23:19:53.797Z,11.83
2022-09-28T23:29:55.273Z,11.81
2022-09-28T23:39:56.726Z,11.87
2022-09-28T23:49:58.261Z,11.68
2022-09-28T23:59:59.892Z,11.74
